Time;durP1;ratioP1;P1;durP2;ratioP2;P2;SDS_P1;SDS_P2;PMS_P1;PMS_P2;Temp;Humidity;BMP_temperature;BMP_pressure;BME280_temperature;BME280_humidity;BME280_pressure;Samples;Min_cycle;Max_cycle;Signal;HPM_P1;HPM_P2
2021/12/14 00:00:37;;;;;;;;;;;;;;;18.60;48.36;100578.88;2107914;28;19935;-62
2021/12/14 00:01:43;;;;;;;;;;;;;;;18.59;48.49;100588.03;2107775;28;20290;-62
2021/12/14 00:02:45;;;;;;;;;;;;;;;18.59;48.46;100593.50;2107770;28;19912;-62
2021/12/14 00:03:48;;;;;;;;;;;;;;;18.58;48.38;100586.31;2107697;28;19912;-63
2021/12/14 00:04:49;;;;;;;;;;;;;;;18.59;48.40;100596.22;2107595;28;20295;-62
2021/12/14 00:05:49;;;;;;;;;;;;;;;18.59;48.52;100596.22;2107677;28;19935;-62
2021/12/14 00:06:50;;;;;;;;;;;;;;;18.59;48.32;100588.03;2107704;28;19959;-62
2021/12/14 00:07:51;;;;;;;;;;;;;;;18.58;48.49;100589.06;2107784;28;19912;-62
2021/12/14 00:08:57;;;;;;;;;;;;;;;18.58;48.45;100591.78;2107646;28;19974;-61
2021/12/14 00:10:11;;;;;;;;;;;;;;;18.57;48.54;100587.31;2107793;28;20374;-62
2021/12/14 00:11:28;;;;;;;;;;;;;;;18.57;48.47;100590.03;2107866;28;19951;-62
2021/12/14 00:12:40;;;;;;;;;;;;;;;18.56;48.29;100580.97;2107825;28;19916;-63
2021/12/14 00:13:56;;;;;;;;;;;;;;;18.56;48.44;100588.31;2107809;28;19912;-62
2021/12/14 00:15:03;;;;;;;;;;;;;;;18.56;48.42;100585.59;2107394;28;20329;-62
2021/12/14 00:16:04;;;;;;;;;;;;;;;18.54;48.57;100593.03;2107787;28;20006;-62
2021/12/14 00:17:04;;;;;;;;;;;;;;;18.55;48.43;100586.59;2107680;28;19912;-62
2021/12/14 00:18:08;;;;;;;;;;;;;;;18.56;48.47;100588.31;2107642;28;20423;-62
2021/12/14 00:19:09;;;;;;;;;;;;;;;18.55;48.50;100583.88;2107626;28;19996;-62
2021/12/14 00:20:15;;;;;;;;;;;;;;;18.55;48.64;100584.72;2107680;28;20366;-62
2021/12/14 00:21:20;;;;;;;;;;;;;;;18.54;48.58;100582.97;2107714;28;20290;-62
2021/12/14 00:24:06;;;;;;;;;;;;;;;18.54;48.63;100584.84;2091397;28;19912;-61
2021/12/14 00:25:07;;;;;;;;;;;;;;;18.53;48.72;100574.94;2107589;28;19966;-61
2021/12/14 00:26:07;;;;;;;;;;;;;;;18.54;48.61;100576.66;2098394;28;20463;-61
2021/12/14 00:27:10;;;;;;;;;;;;;;;18.53;48.67;100574.94;2098603;28;19912;-62
2021/12/14 00:28:13;;;;;;;;;;;;;;;18.52;48.58;100575.94;2107325;28;19919;-62
2021/12/14 00:29:16;;;;;;;;;;;;;;;18.51;48.63;100576.94;2106832;28;19960;-62
2021/12/14 00:30:17;;;;;;;;;;;;;;;18.51;48.64;100575.06;2106965;28;19985;-62
2021/12/14 00:31:18;;;;;;;;;;;;;;;18.52;48.54;100575.94;2098427;28;19970;-62
2021/12/14 00:32:23;;;;;;;;;;;;;;;18.51;48.52;100571.47;2098567;28;19935;-62
2021/12/14 00:33:25;;;;;;;;;;;;;;;18.51;48.59;100577.78;2107380;28;19935;-62
2021/12/14 00:34:36;;;;;;;;;;;;;;;18.51;48.68;100574.22;2107646;28;19912;-62
2021/12/14 00:35:37;;;;;;;;;;;;;;;18.50;48.64;100572.50;2107659;28;19916;-62
2021/12/14 00:36:38;;;;;;;;;;;;;;;18.50;48.58;100570.63;2107339;28;19916;-62
2021/12/14 00:37:50;;;;;;;;;;;;;;;18.50;48.57;100576.06;2107393;28;19912;-62
2021/12/14 00:38:56;;;;;;;;;;;;;;;18.49;48.73;100574.31;2106801;28;19999;-62
2021/12/14 00:39:57;;;;;;;;;;;;;;;18.48;48.61;100578.06;2107059;28;19912;-61
2021/12/14 00:40:59;;;;;;;;;;;;;;;18.49;48.75;100573.47;2106767;28;20277;-62
2021/12/14 00:41:59;;;;;;;;;;;;;;;18.48;48.66;100577.22;2107321;28;19912;-62
2021/12/14 00:43:00;;;;;;;;;;;;;;;18.48;48.70;100572.63;2107527;28;19919;-62
2021/12/14 00:44:00;;;;;;;;;;;;;;;18.49;48.59;100573.47;2107400;28;19912;-61
2021/12/14 00:45:01;;;;;;;;;;;;;;;18.48;48.70;100577.22;2107446;28;19912;-61
2021/12/14 00:46:01;;;;;;;;;;;;;;;18.47;48.83;100572.72;2098303;28;19951;-61
2021/12/14 00:47:03;;;;;;;;;;;;;;;18.46;48.66;100574.59;2098345;28;19913;-62
2021/12/14 00:48:04;;;;;;;;;;;;;;;18.47;48.69;100578.19;2107575;28;19919;-61
2021/12/14 00:49:05;;;;;;;;;;;;;;;18.45;48.82;100572.00;2107346;28;19916;-62
2021/12/14 00:50:06;;;;;;;;;;;;;;;18.45;48.83;100578.34;2107392;28;19912;-62
2021/12/14 00:51:07;;;;;;;;;;;;;;;18.46;48.86;100573.75;2107393;28;20435;-62
2021/12/14 00:52:08;;;;;;;;;;;;;;;18.45;48.90;100572.00;2107482;28;20335;-62
2021/12/14 00:53:08;;;;;;;;;;;;;;;18.46;48.84;100579.22;2107667;28;19935;-62
2021/12/14 00:54:12;;;;;;;;;;;;;;;18.45;48.88;100581.06;2107356;28;19916;-62
2021/12/14 00:55:15;;;;;;;;;;;;;;;18.45;48.83;100572.00;2107317;28;19916;-62
2021/12/14 00:56:15;;;;;;;;;;;;;;;18.45;48.84;100572.88;2107436;28;19912;-62
2021/12/14 00:57:17;;;;;;;;;;;;;;;18.43;48.87;100573.00;2107393;28;19912;-62
2021/12/14 00:58:18;;;;;;;;;;;;;;;18.43;48.91;100567.56;2107640;28;19919;-62
2021/12/14 00:59:20;;;;;;;;;;;;;;;18.43;48.80;100575.75;2107314;28;19960;-62
2021/12/14 01:00:23;;;;;;;;;;;;;;;18.43;48.98;100570.28;2107387;28;19944;-62
2021/12/14 01:01:26;;;;;;;;;;;;;;;18.43;48.81;100574.88;2107308;28;19916;-62
2021/12/14 01:02:26;;;;;;;;;;;;;;;18.42;48.95;100574.03;2107033;28;19913;-62
2021/12/14 01:03:29;;;;;;;;;;;;;;;18.42;48.96;100574.03;2107607;28;19932;-62
2021/12/14 01:04:42;;;;;;;;;;;;;;;18.43;48.75;100572.16;2107067;28;19920;-62
2021/12/14 01:05:45;;;;;;;;;;;;;;;18.42;48.82;100573.13;2107612;28;19912;-62
2021/12/14 01:06:46;;;;;;;;;;;;;;;18.41;48.95;100572.28;2107425;28;19913;-62
2021/12/14 01:07:46;;;;;;;;;;;;;;;18.41;48.90;100575.00;2107253;28;19912;-61
2021/12/14 01:08:48;;;;;;;;;;;;;;;18.40;48.91;100573.28;2107410;28;20025;-61
2021/12/14 01:09:50;;;;;;;;;;;;;;;18.41;48.91;100575.00;2107385;28;19912;-61
2021/12/14 01:10:53;;;;;;;;;;;;;;;18.40;49.01;100572.44;2107401;28;19964;-61
2021/12/14 01:12:01;;;;;;;;;;;;;;;18.40;48.87;100570.56;2107351;28;19955;-61
2021/12/14 01:13:06;;;;;;;;;;;;;;;18.40;48.97;100572.44;2107172;28;19919;-61
2021/12/14 01:14:12;;;;;;;;;;;;;;;18.39;48.89;100579.72;2107256;28;20293;-61
2021/12/14 01:16:49;;;;;;;;;;;;;;;18.38;49.00;100578.00;2107202;28;19912;-61
2021/12/14 01:18:01;;;;;;;;;;;;;;;18.39;48.99;100579.72;2107513;28;19912;-62
2021/12/14 01:19:13;;;;;;;;;;;;;;;18.39;49.04;100574.28;2107198;28;19935;-61
2021/12/14 01:20:16;;;;;;;;;;;;;;;18.39;48.97;100579.72;2107335;28;19912;-61
2021/12/14 01:21:42;;;;;;;;;;;;;;;18.39;49.00;100581.59;2107419;28;20418;-61
2021/12/14 01:22:46;;;;;;;;;;;;;;;18.38;48.94;100575.28;2107130;28;19986;-62
2021/12/14 01:23:47;;;;;;;;;;;;;;;18.38;48.83;100577.16;2107177;28;19916;-61
2021/12/14 01:26:05;;;;;;;;;;;;;;;18.38;48.99;100580.75;2107501;28;19916;-61
2021/12/14 01:27:07;;;;;;;;;;;;;;;18.37;49.07;100575.41;2107214;28;20432;-61
2021/12/14 01:28:13;;;;;;;;;;;;;;;18.37;48.79;100579.03;2106525;28;19922;-61
2021/12/14 01:29:16;;;;;;;;;;;;;;;18.37;48.96;100573.56;2106915;28;19958;-61
2021/12/14 01:30:32;;;;;;;;;;;;;;;18.37;48.91;100576.28;2107238;28;19912;-61
2021/12/14 01:31:39;;;;;;;;;;;;;;;18.37;48.98;100575.41;2106545;28;19916;-62
2021/12/14 01:32:43;;;;;;;;;;;;;;;18.36;48.82;100571.81;2106703;28;19913;-62
2021/12/14 01:33:46;;;;;;;;;;;;;;;18.38;48.91;100577.16;2107266;28;19955;-62
2021/12/14 01:34:46;;;;;;;;;;;;;;;18.37;48.84;100575.41;2107456;28;19912;-62
2021/12/14 01:35:48;;;;;;;;;;;;;;;18.36;48.96;100571.81;2107210;28;20423;-62
2021/12/14 01:36:55;;;;;;;;;;;;;;;18.37;48.84;100572.66;2107437;28;20363;-62
2021/12/14 01:38:15;;;;;;;;;;;;;;;18.37;48.92;100568.09;2107264;28;19916;-62
2021/12/14 01:40:45;;;;;;;;;;;;;;;18.36;48.78;100574.53;2107265;28;19916;-62
2021/12/14 01:41:40;;;;;;;;;;;;;;;18.37;48.95;100576.28;2107003;28;19969;-62
2021/12/14 01:42:41;;;;;;;;;;;;;;;18.36;48.88;100574.53;2107258;28;19957;-62
2021/12/14 01:43:47;;;;;;;;;;;;;;;18.37;48.73;100573.56;2107302;28;19912;-62
2021/12/14 01:44:49;;;;;;;;;;;;;;;18.35;49.00;100575.56;2107414;28;20297;-62
2021/12/14 01:45:50;;;;;;;;;;;;;;;18.36;48.95;100580.00;2107240;28;19955;-62
2021/12/14 01:46:55;;;;;;;;;;;;;;;18.35;48.85;100578.28;2107340;28;19919;-62
2021/12/14 01:47:58;;;;;;;;;;;;;;;18.36;48.74;100588.19;2107168;28;19913;-62
2021/12/14 01:49:04;;;;;;;;;;;;;;;18.37;48.93;100583.59;2107556;28;20008;-61
2021/12/14 01:50:07;;;;;;;;;;;;;;;18.34;48.87;100582.00;2097992;28;19920;-61
2021/12/14 01:51:09;;;;;;;;;;;;;;;18.35;48.93;100583.75;2098629;28;19916;-62
2021/12/14 01:52:16;;;;;;;;;;;;;;;18.34;48.77;100582.00;2107787;28;19920;-62
2021/12/14 01:53:20;;;;;;;;;;;;;;;18.34;48.85;100592.91;2108238;28;19951;-62
2021/12/14 01:54:22;;;;;;;;;;;;;;;18.35;48.89;100589.19;2099737;28;19960;-62
2021/12/14 01:55:24;;;;;;;;;;;;;;;18.36;48.96;100600.97;2100281;28;19920;-62
2021/12/14 01:56:27;;;;;;;;;;;;;;;18.34;48.90;100592.91;2108722;28;19948;-62
2021/12/14 01:57:29;;;;;;;;;;;;;;;18.34;48.94;100603.81;2108673;28;19916;-62
2021/12/14 01:58:35;;;;;;;;;;;;;;;18.34;48.97;100597.50;2108572;28;19935;-62
2021/12/14 01:59:38;;;;;;;;;;;;;;;18.34;48.69;100598.38;2108780;28;19912;-62
2021/12/14 02:00:43;;;;;;;;;;;;;;;18.33;48.90;100602.09;2108651;28;19957;-62
2021/12/14 02:01:55;;;;;;;;;;;;;;;18.34;48.98;100605.69;2108795;28;19919;-62
2021/12/14 02:02:56;;;;;;;;;;;;;;;18.33;49.03;100610.28;2108593;28;20422;-62
2021/12/14 02:04:06;;;;;;;;;;;;;;;18.31;48.76;100606.84;2108399;28;20298;-62
2021/12/14 02:05:09;;;;;;;;;;;;;;;18.33;48.92;100613.03;2108686;28;19912;-62
2021/12/14 02:06:12;;;;;;;;;;;;;;;18.31;48.84;100611.44;2108739;28;19912;-62
2021/12/14 02:07:14;;;;;;;;;;;;;;;18.33;48.97;100607.56;2108775;28;19912;-62
2021/12/14 02:08:24;;;;;;;;;;;;;;;18.32;48.87;100616.75;2108638;28;19919;-62
2021/12/14 02:09:26;;;;;;;;;;;;;;;18.32;48.90;100616.75;2108640;28;19912;-62
2021/12/14 02:10:31;;;;;;;;;;;;;;;18.33;48.83;100614.91;2108781;28;19916;-62
2021/12/14 02:11:38;;;;;;;;;;;;;;;18.30;48.87;100618.75;2108697;28;19919;-61
2021/12/14 02:12:40;;;;;;;;;;;;;;;18.32;48.99;100616.75;2108716;28;19916;-61
2021/12/14 02:13:45;;;;;;;;;;;;;;;18.31;48.90;100615.03;2108747;28;19918;-62
2021/12/14 02:14:46;;;;;;;;;;;;;;;18.32;48.98;100616.75;2108687;28;19920;-62
2021/12/14 02:15:46;;;;;;;;;;;;;;;18.30;48.98;100618.75;2108614;28;19938;-62
2021/12/14 02:16:48;;;;;;;;;;;;;;;18.32;48.90;100615.88;2108503;28;19916;-62
2021/12/14 02:17:49;;;;;;;;;;;;;;;18.30;48.82;100618.75;2108477;28;19912;-63
2021/12/14 02:18:52;;;;;;;;;;;;;;;18.30;48.75;100616.03;2108516;28;19912;-63
2021/12/14 02:19:52;;;;;;;;;;;;;;;18.31;48.84;100623.22;2108642;28;20389;-62
2021/12/14 02:20:55;;;;;;;;;;;;;;;18.31;48.91;100619.63;2108537;28;20357;-62
2021/12/14 02:21:57;;;;;;;;;;;;;;;18.31;48.80;100623.22;2108480;28;19996;-62
2021/12/14 02:22:58;;;;;;;;;;;;;;;18.31;48.87;100620.47;2108711;28;19912;-62
2021/12/14 02:24:00;;;;;;;;;;;;;;;18.32;48.98;100626.78;2108406;28;19911;-62
2021/12/14 02:25:00;;;;;;;;;;;;;;;18.32;48.97;100622.19;2108569;28;19912;-62
2021/12/14 02:26:05;;;;;;;;;;;;;;;18.34;48.90;100624.81;2108919;28;19912;-62
2021/12/14 02:27:06;;;;;;;;;;;;;;;18.33;48.79;100623.09;2108433;28;20256;-62
2021/12/14 02:28:08;;;;;;;;;;;;;;;18.35;48.84;100621.94;2108415;28;19912;-63
2021/12/14 02:29:09;;;;;;;;;;;;;;;18.38;48.73;100613.50;2108301;28;20435;-62
2021/12/14 02:30:13;;;;;;;;;;;;;;;18.40;48.51;100618.84;2108593;28;20022;-63
2021/12/14 02:31:15;;;;;;;;;;;;;;;18.40;48.63;100613.38;2108563;28;19919;-62
2021/12/14 02:32:20;;;;;;;;;;;;;;;18.43;48.42;100619.41;2108398;28;20365;-63
2021/12/14 02:33:23;;;;;;;;;;;;;;;18.44;48.48;100614.81;2108529;28;19935;-62
2021/12/14 02:34:24;;;;;;;;;;;;;;;18.47;48.28;100622.75;2108291;28;19928;-62
2021/12/14 02:35:25;;;;;;;;;;;;;;;18.46;48.21;100618.28;2108161;28;20011;-63
2021/12/14 02:36:27;;;;;;;;;;;;;;;18.48;48.28;100619.03;2108479;28;19955;-62
2021/12/14 02:37:54;;;;;;;;;;;;;;;18.50;48.22;100624.34;2108545;28;19981;-63
2021/12/14 02:39:06;;;;;;;;;;;;;;;18.52;48.13;100622.34;2106096;28;19919;-63
2021/12/14 02:40:18;;;;;;;;;;;;;;;18.53;48.09;100618.63;2108464;28;20369;-63
2021/12/14 02:41:18;;;;;;;;;;;;;;;18.54;48.16;100623.94;2108438;28;19924;-63
2021/12/14 02:42:20;;;;;;;;;;;;;;;18.56;48.21;100624.66;2108410;28;19943;-63
2021/12/14 02:43:21;;;;;;;;;;;;;;;18.56;47.95;100619.22;2108275;28;20010;-63
2021/12/14 02:44:21;;;;;;;;;;;;;;;18.58;48.09;100619.09;2108501;28;19960;-63
2021/12/14 02:45:22;;;;;;;;;;;;;;;18.58;48.00;100621.81;2108336;28;19918;-63
2021/12/14 02:46:24;;;;;;;;;;;;;;;18.58;47.93;100622.69;2108537;28;20342;-62
2021/12/14 02:47:25;;;;;;;;;;;;;;;18.59;47.91;100624.44;2108281;28;20325;-63
2021/12/14 02:48:25;;;;;;;;;;;;;;;18.59;47.84;100623.53;2108480;28;20098;-63
2021/12/14 02:49:29;;;;;;;;;;;;;;;18.59;48.04;100618.06;2099243;28;20302;-63
2021/12/14 02:50:29;;;;;;;;;;;;;;;18.59;47.98;100624.44;2099563;28;19971;-63
2021/12/14 02:51:40;;;;;;;;;;;;;;;18.60;47.92;100620.69;2108225;28;20362;-63
2021/12/14 02:52:41;;;;;;;;;;;;;;;18.61;47.97;100621.53;2108595;28;19995;-63
2021/12/14 02:53:42;;;;;;;;;;;;;;;18.61;47.82;100618.81;2108154;28;19912;-64
2021/12/14 02:54:44;;;;;;;;;;;;;;;18.61;47.96;100621.53;2108292;28;19964;-63
2021/12/14 02:55:45;;;;;;;;;;;;;;;18.60;47.82;100620.69;2108066;28;19916;-63
2021/12/14 02:56:46;;;;;;;;;;;;;;;18.61;47.79;100616.06;2108182;28;19920;-64
2021/12/14 02:57:49;;;;;;;;;;;;;;;18.62;47.81;100617.81;2108180;28;19912;-63
2021/12/14 02:58:54;;;;;;;;;;;;;;;18.61;47.90;100616.94;2108226;28;19962;-62
2021/12/14 02:59:55;;;;;;;;;;;;;;;18.62;47.89;100617.81;2108562;28;19912;-63
2021/12/14 03:00:58;;;;;;;;;;;;;;;18.61;47.92;100618.81;2108105;28;19912;-63
2021/12/14 03:02:04;;;;;;;;;;;;;;;18.62;47.93;100626.03;2108128;28;19947;-63
2021/12/14 03:03:06;;;;;;;;;;;;;;;18.63;47.88;100625.88;2108121;28;20045;-63
2021/12/14 03:04:07;;;;;;;;;;;;;;;18.62;47.83;100617.81;2098614;28;19921;-63
2021/12/14 03:05:15;;;;;;;;;;;;;;;18.61;47.92;100627.00;2099694;28;19974;-63
2021/12/14 03:06:21;;;;;;;;;;;;;;;18.63;47.80;100625.00;2099329;28;19959;-63
2021/12/14 03:07:24;;;;;;;;;;;;;;;18.61;47.91;100619.66;2099906;28;19919;-63
2021/12/14 03:08:26;;;;;;;;;;;;;;;18.62;47.89;100624.16;2107479;28;19935;-62
2021/12/14 03:09:53;;;;;;;;;;;;;;;18.62;47.74;100615.09;2108025;28;19919;-63
2021/12/14 03:11:10;;;;;;;;;;;;;;;18.62;47.79;100618.69;2108110;28;20301;-63
2021/12/14 03:12:21;;;;;;;;;;;;;;;18.61;47.98;100621.53;2108227;28;20363;-63
2021/12/14 03:13:24;;;;;;;;;;;;;;;18.61;47.76;100621.53;2108020;28;19935;-64
2021/12/14 03:14:24;;;;;;;;;;;;;;;18.59;47.95;100615.34;2108063;28;19912;-63
2021/12/14 03:15:27;;;;;;;;;;;;;;;18.59;47.82;100612.63;2108070;28;19963;-63
2021/12/14 03:16:28;;;;;;;;;;;;;;;18.62;47.84;100617.81;2108026;28;20041;-63
2021/12/14 03:17:29;;;;;;;;;;;;;;;18.60;47.86;100614.38;2108093;28;20285;-61
2021/12/14 03:18:34;;;;;;;;;;;;;;;18.58;47.87;100606.28;2108267;28;19912;-63
2021/12/14 03:19:34;;;;;;;;;;;;;;;18.60;47.86;100622.56;2108125;28;19912;-61
2021/12/14 03:20:40;;;;;;;;;;;;;;;18.59;48.19;100612.63;2108222;28;20359;-62
2021/12/14 03:21:45;;;;;;;;;;;;;;;18.58;48.02;100617.22;2099257;28;19912;-62
2021/12/14 03:22:48;;;;;;;;;;;;;;;18.58;47.93;100627.28;2099964;28;19962;-62
2021/12/14 03:23:54;;;;;;;;;;;;;;;18.58;48.07;100619.09;2108035;28;20370;-61
2021/12/14 03:24:55;;;;;;;;;;;;;;;18.56;47.97;100621.06;2108004;28;19985;-61
2021/12/14 03:25:59;;;;;;;;;;;;;;;18.57;48.03;100620.97;2108006;28;19913;-61
2021/12/14 03:27:02;;;;;;;;;;;;;;;18.56;47.94;100619.22;2108097;28;19919;-62
2021/12/14 03:28:03;;;;;;;;;;;;;;;18.57;48.04;100622.78;2098889;28;19966;-62
2021/12/14 03:29:07;;;;;;;;;;;;;;;18.56;47.98;100618.34;2099005;28;19993;-62
2021/12/14 03:30:16;;;;;;;;;;;;;;;18.57;47.91;100625.53;2107974;28;19912;-62
2021/12/14 03:31:30;;;;;;;;;;;;;;;18.56;48.03;100623.81;2107889;28;20007;-62
2021/12/14 03:32:33;;;;;;;;;;;;;;;18.54;47.92;100625.81;2098797;28;19912;-62
2021/12/14 03:33:36;;;;;;;;;;;;;;;18.55;47.95;100622.09;2099206;28;19935;-61
2021/12/14 03:34:38;;;;;;;;;;;;;;;18.55;48.05;100624.81;2107969;28;20304;-63
2021/12/14 03:35:44;;;;;;;;;;;;;;;18.55;48.06;100630.28;2107777;28;20374;-62
2021/12/14 03:36:49;;;;;;;;;;;;;;;18.53;48.12;100630.41;2107928;28;19912;-61
2021/12/14 03:38:02;;;;;;;;;;;;;;;18.53;47.90;100633.13;2107952;28;19912;-61
2021/12/14 03:39:07;;;;;;;;;;;;;;;18.53;48.12;100635.00;2107937;28;19912;-62
2021/12/14 03:40:08;;;;;;;;;;;;;;;18.53;48.07;100635.88;2107827;28;19924;-63
2021/12/14 03:41:12;;;;;;;;;;;;;;;18.52;48.06;100630.53;2107988;28;20325;-62
2021/12/14 03:42:15;;;;;;;;;;;;;;;18.52;48.05;100638.72;2108296;28;19912;-61
2021/12/14 03:43:15;;;;;;;;;;;;;;;18.52;48.04;100633.25;2107921;28;20432;-61
2021/12/14 03:44:27;;;;;;;;;;;;;;;18.51;48.15;100629.66;2108088;28;19986;-61
2021/12/14 03:45:28;;;;;;;;;;;;;;;18.51;47.99;100637.84;2108262;28;20301;-61
2021/12/14 03:46:29;;;;;;;;;;;;;;;18.50;48.13;100627.94;2108023;28;19912;-61
2021/12/14 03:47:32;;;;;;;;;;;;;;;18.50;48.18;100635.28;2108115;28;19951;-61
2021/12/14 03:48:33;;;;;;;;;;;;;;;18.49;48.04;100630.81;2107977;28;19956;-62
2021/12/14 03:49:36;;;;;;;;;;;;;;;18.49;48.13;100634.38;2107984;28;19912;-62
2021/12/14 03:50:41;;;;;;;;;;;;;;;18.49;48.17;100639.84;2107826;28;20390;-62
2021/12/14 03:51:41;;;;;;;;;;;;;;;18.48;48.10;100638.13;2107206;28;19918;-62
2021/12/14 03:52:43;;;;;;;;;;;;;;;18.49;48.02;100645.31;2107376;28;19919;-62
2021/12/14 03:53:43;;;;;;;;;;;;;;;18.48;48.07;100640.00;2107919;28;20350;-62
2021/12/14 03:54:44;;;;;;;;;;;;;;;18.49;48.19;100644.44;2107866;28;20392;-61
2021/12/14 03:55:46;;;;;;;;;;;;;;;18.49;48.17;100647.19;2107119;28;19969;-61
2021/12/14 03:56:47;;;;;;;;;;;;;;;18.48;48.21;100653.66;2107194;28;19918;-62
2021/12/14 03:57:48;;;;;;;;;;;;;;;18.46;48.28;100644.72;2107843;28;19916;-61
2021/12/14 03:58:49;;;;;;;;;;;;;;;18.46;48.19;100651.03;2107569;28;20004;-62
2021/12/14 03:59:49;;;;;;;;;;;;;;;18.46;48.29;100656.50;2107685;28;19912;-62
2021/12/14 04:00:52;;;;;;;;;;;;;;;18.46;48.29;100655.63;2107959;28;19912;-62
2021/12/14 04:01:52;;;;;;;;;;;;;;;18.46;48.27;100650.19;2107636;28;20006;-62
2021/12/14 04:02:56;;;;;;;;;;;;;;;18.45;48.22;100653.88;2107606;28;19912;-62
2021/12/14 04:04:02;;;;;;;;;;;;;;;18.45;48.10;100659.34;2107464;28;19912;-62
2021/12/14 04:05:06;;;;;;;;;;;;;;;18.45;48.20;100656.63;2107581;28;19912;-62
2021/12/14 04:06:07;;;;;;;;;;;;;;;18.44;48.15;100655.75;2107705;28;19919;-62
2021/12/14 04:07:10;;;;;;;;;;;;;;;18.44;48.32;100650.31;2107607;28;19916;-61
2021/12/14 04:08:11;;;;;;;;;;;;;;;18.43;48.28;100657.63;2107638;28;20003;-61
2021/12/14 04:09:12;;;;;;;;;;;;;;;18.43;48.17;100657.63;2107828;28;19912;-61
2021/12/14 04:10:15;;;;;;;;;;;;;;;18.41;48.31;100651.44;2107683;28;19916;-62
2021/12/14 04:11:15;;;;;;;;;;;;;;;18.42;48.29;100649.56;2107887;28;20297;-62
2021/12/14 04:12:17;;;;;;;;;;;;;;;18.41;48.35;100654.16;2107709;28;19943;-62
2021/12/14 04:13:24;;;;;;;;;;;;;;;18.40;48.34;100652.44;2107548;28;19963;-61
2021/12/14 04:14:29;;;;;;;;;;;;;;;18.40;48.38;100649.72;2107590;28;20290;-61
2021/12/14 04:15:29;;;;;;;;;;;;;;;18.41;48.27;100647.84;2097904;28;19923;-62
2021/12/14 04:16:30;;;;;;;;;;;;;;;18.41;48.29;100643.25;2098625;28;20441;-62
2021/12/14 04:17:30;;;;;;;;;;;;;;;18.40;48.28;100646.13;2107523;28;20308;-61
2021/12/14 04:18:31;;;;;;;;;;;;;;;18.40;48.16;100646.13;2107621;28;19912;-62
2021/12/14 04:19:31;;;;;;;;;;;;;;;18.39;48.34;100647.09;2107763;28;19912;-62
2021/12/14 04:20:33;;;;;;;;;;;;;;;18.39;48.23;100645.22;2107598;28;19919;-62
2021/12/14 04:21:35;;;;;;;;;;;;;;;18.38;48.29;100642.66;2107753;28;19959;-62
2021/12/14 04:22:36;;;;;;;;;;;;;;;18.38;48.36;100638.06;2107592;28;20351;-62
2021/12/14 04:23:38;;;;;;;;;;;;;;;18.38;48.21;100643.53;2107573;28;19935;-62
2021/12/14 04:24:39;;;;;;;;;;;;;;;18.39;48.36;100644.38;2107603;28;19916;-63
2021/12/14 04:25:40;;;;;;;;;;;;;;;18.38;48.24;100637.19;2107591;28;19912;-62
2021/12/14 04:26:44;;;;;;;;;;;;;;;18.37;48.43;100644.53;2107545;28;20404;-62
2021/12/14 04:27:46;;;;;;;;;;;;;;;18.38;48.41;100643.53;2107470;28;19912;-62
2021/12/14 04:28:54;;;;;;;;;;;;;;;18.36;48.40;100641.91;2107613;28;19912;-62
2021/12/14 04:29:55;;;;;;;;;;;;;;;18.36;48.40;100644.66;2107861;28;19912;-62
2021/12/14 04:30:56;;;;;;;;;;;;;;;18.37;48.38;100647.25;2107701;28;19912;-62
2021/12/14 04:31:56;;;;;;;;;;;;;;;18.36;48.30;100650.97;2107433;28;19992;-62
2021/12/14 04:33:00;;;;;;;;;;;;;;;18.36;48.18;100642.78;2107710;28;19919;-62
2021/12/14 04:34:00;;;;;;;;;;;;;;;18.36;48.41;100642.78;2107502;28;20282;-62
2021/12/14 04:35:01;;;;;;;;;;;;;;;18.35;48.31;100641.06;2107619;28;19935;-62
2021/12/14 04:36:04;;;;;;;;;;;;;;;18.33;48.44;100640.31;2107423;28;19915;-62
2021/12/14 04:37:05;;;;;;;;;;;;;;;18.33;48.37;100634.88;2107322;28;19935;-61
2021/12/14 04:38:14;;;;;;;;;;;;;;;18.35;48.22;100643.78;2107525;28;19944;-61
2021/12/14 04:52:05;;;;;;;;;;;;;;;18.31;48.41;100657.81;2107467;28;19916;-63
2021/12/14 04:53:15;;;;;;;;;;;;;;;18.30;48.43;100651.50;2107595;28;19915;-62
2021/12/14 04:54:15;;;;;;;;;;;;;;;18.29;48.53;100649.75;2107395;28;19912;-62
2021/12/14 04:55:15;;;;;;;;;;;;;;;18.29;48.34;100648.91;2107503;28;19919;-62
2021/12/14 04:56:19;;;;;;;;;;;;;;;18.28;48.54;100656.22;2107634;28;19912;-62
2021/12/14 04:57:20;;;;;;;;;;;;;;;18.28;48.31;100653.50;2107584;28;20255;-62
2021/12/14 04:58:28;;;;;;;;;;;;;;;18.28;48.60;100658.97;2106712;28;19993;-62
2021/12/14 04:59:30;;;;;;;;;;;;;;;18.28;48.48;100658.97;2107058;28;20294;-62
2021/12/14 05:00:34;;;;;;;;;;;;;;;18.28;48.54;100664.41;2107328;28;19919;-62
2021/12/14 05:01:36;;;;;;;;;;;;;;;18.27;48.54;100656.34;2107393;28;19994;-62
2021/12/14 05:02:37;;;;;;;;;;;;;;;18.26;48.43;100666.41;2107490;28;19951;-62
2021/12/14 05:03:40;;;;;;;;;;;;;;;18.27;48.41;100662.66;2098301;28;19937;-62
2021/12/14 05:04:41;;;;;;;;;;;;;;;18.27;48.51;100656.34;2098550;28;19920;-62
2021/12/14 05:05:48;;;;;;;;;;;;;;;18.26;48.63;100662.81;2107425;28;19919;-62
2021/12/14 05:06:55;;;;;;;;;;;;;;;18.26;48.48;100660.09;2107530;28;19922;-62
2021/12/14 05:09:22;;;;;;;;;;;;;;;18.24;48.37;100665.66;2107347;28;19998;-62
2021/12/14 05:10:23;;;;;;;;;;;;;;;18.25;48.33;100667.41;2107410;28;19919;-62
2021/12/14 05:11:24;;;;;;;;;;;;;;;18.25;48.60;100666.53;2107252;28;19912;-62
2021/12/14 05:12:29;;;;;;;;;;;;;;;18.24;48.40;100667.53;2107362;28;20393;-62
2021/12/14 05:13:31;;;;;;;;;;;;;;;18.24;48.40;100668.38;2107294;28;19912;-62
2021/12/14 05:14:33;;;;;;;;;;;;;;;18.23;48.42;100666.66;2106613;28;20414;-62
2021/12/14 05:15:40;;;;;;;;;;;;;;;18.23;48.52;100672.13;2106750;28;20290;-62
2021/12/14 05:16:40;;;;;;;;;;;;;;;18.23;48.61;100672.13;2107488;28;19912;-62
2021/12/14 05:17:42;;;;;;;;;;;;;;;18.23;48.47;100665.78;2107390;28;19913;-62
2021/12/14 05:18:56;;;;;;;;;;;;;;;18.22;48.65;100662.19;2107377;28;19951;-61
2021/12/14 05:19:57;;;;;;;;;;;;;;;18.22;48.50;100664.91;2107496;28;19918;-62
2021/12/14 05:20:59;;;;;;;;;;;;;;;18.23;48.55;100671.25;2107169;28;19916;-62
2021/12/14 05:22:13;;;;;;;;;;;;;;;18.21;48.51;100657.75;2107436;28;19912;-62
2021/12/14 05:23:25;;;;;;;;;;;;;;;18.20;48.47;100667.81;2107300;28;19943;-62
2021/12/14 05:24:26;;;;;;;;;;;;;;;18.20;48.59;100662.34;2107495;28;19912;-62
2021/12/14 05:25:28;;;;;;;;;;;;;;;18.20;48.43;100656.00;2098161;28;19920;-62
2021/12/14 05:26:28;;;;;;;;;;;;;;;18.20;48.46;100653.25;2098396;28;19924;-62
2021/12/14 05:27:35;;;;;;;;;;;;;;;18.20;48.46;100658.72;2108775;28;19912;-62
2021/12/14 05:28:37;;;;;;;;;;;;;;;18.20;48.65;100656.00;2108171;28;19919;-63
2021/12/14 05:29:40;;;;;;;;;;;;;;;18.19;48.61;100648.81;2108367;28;20113;-62
2021/12/14 05:30:43;;;;;;;;;;;;;;;18.19;48.52;100654.28;2109019;28;19919;-62
2021/12/14 05:31:46;;;;;;;;;;;;;;;18.19;48.55;100649.69;2108916;28;20003;-62
2021/12/14 05:32:46;;;;;;;;;;;;;;;18.19;48.39;100649.69;2108826;28;19912;-62
2021/12/14 05:33:47;;;;;;;;;;;;;;;18.19;48.58;100646.09;2099792;28;20533;-62
2021/12/14 05:34:49;;;;;;;;;;;;;;;18.18;48.56;100649.81;2099826;28;19923;-62
2021/12/14 05:35:52;;;;;;;;;;;;;;;18.19;48.63;100648.81;2108864;28;19916;-62
2021/12/14 05:36:53;;;;;;;;;;;;;;;18.17;48.50;100657.13;2108904;28;19962;-62
2021/12/14 05:37:55;;;;;;;;;;;;;;;18.18;48.47;100655.28;2108855;28;19946;-62
2021/12/14 05:40:24;;;;;;;;;;;;;;;18.17;48.48;100661.72;2108958;28;19912;-62
2021/12/14 05:44:04;;;;;;;;;;;;;;;18.17;48.61;100667.19;2109037;28;19912;-62
2021/12/14 05:45:08;;;;;;;;;;;;;;;18.16;48.47;100666.31;2108014;28;19912;-62
2021/12/14 05:46:08;;;;;;;;;;;;;;;18.16;48.47;100665.47;2108390;28;20316;-62
2021/12/14 05:47:10;;;;;;;;;;;;;;;18.16;48.68;100662.72;2109044;28;19912;-62
2021/12/14 05:48:16;;;;;;;;;;;;;;;18.15;48.63;100663.72;2108721;28;19912;-63
2021/12/14 05:49:18;;;;;;;;;;;;;;;18.15;48.53;100663.72;2108646;28;20423;-62
2021/12/14 05:50:21;;;;;;;;;;;;;;;18.15;48.47;100666.44;2108637;28;19945;-62